Time;durP1;ratioP1;P1;durP2;ratioP2;P2;SDS_P1;SDS_P2;PMS_P1;PMS_P2;Temp;Humidity;BMP_temperature;BMP_pressure;BME280_temperature;BME280_humidity;BME280_pressure;Samples;Min_cycle;Max_cycle;Signal;HPM_P1;HPM_P2
2022/05/04 00:00:26;;;;;;;22.30;9.30;;;9.70;99.90;;;;;;5033403;28;20219;-89
2022/05/04 00:02:54;;;;;;;19.30;10.73;;;9.70;99.90;;;;;;5051337;28;20189;-89
2022/05/04 00:05:23;;;;;;;19.60;10.53;;;9.60;99.90;;;;;;5041969;28;20220;-90
2022/05/04 00:07:51;;;;;;;23.87;10.70;;;9.60;99.90;;;;;;5055535;28;20238;-90
2022/05/04 00:10:22;;;;;;;24.47;11.20;;;9.60;99.90;;;;;;5042045;28;20231;-90
2022/05/04 00:12:52;;;;;;;23.67;10.80;;;9.50;99.90;;;;;;5056700;28;20188;-89
2022/05/04 00:15:21;;;;;;;27.43;11.60;;;9.40;99.90;;;;;;5035272;28;20207;-90
2022/05/04 00:17:49;;;;;;;21.43;11.17;;;9.30;99.90;;;;;;5033899;28;20295;-89
2022/05/04 00:20:18;;;;;;;22.63;10.87;;;9.30;99.90;;;;;;5021014;28;20188;-91
2022/05/04 00:22:47;;;;;;;21.17;10.73;;;9.20;99.90;;;;;;5054414;28;20282;-89
2022/05/04 00:25:15;;;;;;;21.70;11.93;;;9.10;99.90;;;;;;5047320;28;20204;-89
2022/05/04 00:27:44;;;;;;;20.60;10.70;;;9.10;99.90;;;;;;5081280;28;20180;-90
2022/05/04 00:30:14;;;;;;;24.20;11.60;;;9.00;99.90;;;;;;5042179;28;20562;-90
2022/05/04 00:32:45;;;;;;;19.77;10.53;;;9.00;99.90;;;;;;5062881;28;20614;-90
2022/05/04 00:35:14;;;;;;;21.70;10.73;;;9.00;99.90;;;;;;5042989;28;20823;-90
2022/05/04 00:37:43;;;;;;;24.97;12.20;;;9.00;99.90;;;;;;5025443;28;20208;-90
2022/05/04 00:40:12;;;;;;;25.83;11.80;;;8.90;99.90;;;;;;5057278;28;20665;-89
2022/05/04 00:42:40;;;;;;;24.17;11.47;;;8.90;99.90;;;;;;5031196;28;20193;-89
2022/05/04 00:45:10;;;;;;;29.10;11.93;;;8.80;99.90;;;;;;5023822;28;20203;-90
2022/05/04 00:47:39;;;;;;;26.90;11.70;;;8.80;99.90;;;;;;5038232;28;20192;-90
2022/05/04 00:50:09;;;;;;;23.60;12.00;;;8.70;99.90;;;;;;5026944;28;20678;-89
2022/05/04 00:52:39;;;;;;;23.93;11.70;;;8.70;99.90;;;;;;5043114;28;20251;-89
2022/05/04 00:55:09;;;;;;;24.90;10.97;;;8.60;99.90;;;;;;5047485;28;20193;-89
2022/05/04 01:00:23;;;;;;;22.40;11.50;;;8.50;99.90;;;;;;5060117;28;20239;-89
2022/05/04 01:02:54;;;;;;;22.07;10.87;;;8.40;99.90;;;;;;5071960;28;20192;-89
2022/05/04 01:05:23;;;;;;;24.23;12.47;;;8.40;99.90;;;;;;5023906;28;20204;-89
2022/05/04 01:07:55;;;;;;;22.97;11.23;;;8.30;99.90;;;;;;5056827;28;20257;-89
2022/05/04 01:10:24;;;;;;;25.97;11.90;;;8.30;99.90;;;;;;5036442;28;20250;-89
2022/05/04 01:12:53;;;;;;;26.00;11.70;;;8.20;99.90;;;;;;5040934;28;20192;-90
2022/05/04 01:15:24;;;;;;;22.60;10.93;;;8.20;99.90;;;;;;5035622;28;20712;-90
2022/05/04 01:17:54;;;;;;;25.60;11.20;;;8.10;99.90;;;;;;5057537;28;20208;-89
2022/05/04 01:20:24;;;;;;;22.90;10.80;;;8.10;99.90;;;;;;5014295;28;20793;-88
2022/05/04 01:22:56;;;;;;;23.80;10.50;;;8.00;99.90;;;;;;5028479;28;20681;-90
2022/05/04 01:25:24;;;;;;;22.97;10.13;;;7.90;99.90;;;;;;5023669;28;20192;-89
2022/05/04 01:27:52;;;;;;;24.40;10.73;;;7.80;99.90;;;;;;5055340;28;20765;-90
2022/05/04 01:30:21;;;;;;;26.67;10.20;;;7.80;99.90;;;;;;5052664;28;20208;-89
2022/05/04 01:32:50;;;;;;;26.13;10.50;;;7.80;99.90;;;;;;5055429;28;20212;-89
2022/05/04 01:35:18;;;;;;;18.53;10.20;;;7.80;99.90;;;;;;5041367;28;20224;-90
2022/05/04 01:37:47;;;;;;;19.57;10.30;;;7.70;99.90;;;;;;5045819;28;20199;-89
2022/05/04 01:40:17;;;;;;;20.13;10.50;;;7.70;99.90;;;;;;5066966;28;20200;-90
2022/05/04 01:42:45;;;;;;;23.23;9.70;;;7.60;99.90;;;;;;5056078;28;20229;-90
2022/05/04 01:45:14;;;;;;;30.70;10.10;;;7.50;99.90;;;;;;5011336;28;20190;-89
2022/05/04 01:47:48;;;;;;;24.47;10.93;;;7.50;99.90;;;;;;5028536;28;20646;-89
2022/05/04 01:50:16;;;;;;;25.60;10.23;;;7.50;99.90;;;;;;5058466;28;20196;-89
2022/05/04 01:52:45;;;;;;;27.00;10.53;;;7.50;99.90;;;;;;5021938;28;20193;-90
2022/05/04 01:55:15;;;;;;;23.70;10.33;;;7.40;99.90;;;;;;5022285;28;20279;-89
2022/05/04 01:57:44;;;;;;;22.40;10.17;;;7.40;99.90;;;;;;5064158;28;20193;-89
2022/05/04 02:00:13;;;;;;;19.63;10.33;;;7.40;99.90;;;;;;5020354;28;20213;-88
2022/05/04 02:02:42;;;;;;;25.00;10.20;;;7.40;99.90;;;;;;5067061;28;20274;-89
2022/05/04 02:05:12;;;;;;;20.87;10.63;;;7.30;99.90;;;;;;5064252;28;20723;-90
2022/05/04 02:07:41;;;;;;;19.03;10.73;;;7.30;99.90;;;;;;5057630;28;20216;-89
2022/05/04 02:10:11;;;;;;;24.50;12.10;;;7.20;99.90;;;;;;5083931;28;20208;-89
2022/05/04 02:12:42;;;;;;;22.17;11.63;;;7.20;99.90;;;;;;5032339;28;20530;-90
2022/05/04 02:15:12;;;;;;;25.43;11.63;;;7.10;99.90;;;;;;5070511;28;20557;-89
2022/05/04 02:17:41;;;;;;;23.43;11.33;;;7.10;99.90;;;;;;5060076;28;20200;-89
2022/05/04 02:20:11;;;;;;;23.50;12.23;;;7.10;99.90;;;;;;5024517;28;20189;-89
2022/05/04 02:22:40;;;;;;;25.67;11.73;;;7.00;99.90;;;;;;5066015;28;20194;-89
2022/05/04 02:25:09;;;;;;;29.47;12.43;;;7.00;99.90;;;;;;5033283;28;20209;-88
2022/05/04 02:27:38;;;;;;;24.97;12.23;;;6.90;99.90;;;;;;5026712;28;20238;-89
2022/05/04 02:30:10;;;;;;;24.27;11.93;;;6.90;99.90;;;;;;5042129;28;20275;-90
2022/05/04 02:32:38;;;;;;;26.13;12.33;;;6.90;99.90;;;;;;5033184;28;20201;-89
2022/05/04 02:37:58;;;;;;;27.00;12.80;;;6.90;99.90;;;;;;5018069;28;20193;-90
2022/05/04 02:40:27;;;;;;;27.17;12.93;;;6.80;99.90;;;;;;5021959;28;20201;-89
2022/05/04 02:42:56;;;;;;;28.67;13.47;;;6.80;99.90;;;;;;5037266;28;20709;-88
2022/05/04 02:45:26;;;;;;;22.20;13.07;;;6.80;99.90;;;;;;5035522;28;20194;-89
2022/05/04 02:47:55;;;;;;;34.63;14.03;;;6.80;99.90;;;;;;5035011;28;20197;-89
2022/05/04 02:50:23;;;;;;;28.60;13.80;;;6.80;99.90;;;;;;5020738;28;20231;-89
2022/05/04 02:52:52;;;;;;;27.23;13.33;;;6.80;99.90;;;;;;5026293;28;20185;-90
2022/05/04 02:55:21;;;;;;;26.63;13.67;;;6.80;99.90;;;;;;5045969;28;20472;-89
2022/05/04 02:57:50;;;;;;;27.50;13.87;;;6.80;99.90;;;;;;5042811;28;20218;-90
2022/05/04 03:00:19;;;;;;;26.00;13.23;;;6.80;99.90;;;;;;5032584;28;20217;-89
2022/05/04 03:02:49;;;;;;;25.00;13.87;;;6.80;99.90;;;;;;5037496;28;20199;-89
2022/05/04 03:05:19;;;;;;;35.00;13.93;;;6.80;99.90;;;;;;5062050;28;20184;-90
2022/05/04 03:07:47;;;;;;;28.57;12.77;;;6.80;99.90;;;;;;5026901;28;20199;-89
2022/05/04 03:10:16;;;;;;;25.43;12.67;;;6.70;99.90;;;;;;5017339;28;20655;-89
2022/05/04 03:12:48;;;;;;;19.03;11.93;;;6.70;99.90;;;;;;5052933;28;20227;-89
2022/05/04 03:15:16;;;;;;;25.47;12.87;;;6.60;99.90;;;;;;5066785;28;20197;-89
2022/05/04 03:17:45;;;;;;;32.57;14.33;;;6.60;99.90;;;;;;5054593;28;20201;-90
2022/05/04 03:20:15;;;;;;;30.87;14.17;;;6.50;99.90;;;;;;5008269;28;20189;-88
2022/05/04 03:22:44;;;;;;;30.90;13.90;;;6.50;99.90;;;;;;5037925;28;20205;-89
2022/05/04 03:25:13;;;;;;;29.77;14.23;;;6.40;99.90;;;;;;5047918;28;20536;-90
2022/05/04 03:27:42;;;;;;;30.17;13.80;;;6.30;99.90;;;;;;5058506;28;20283;-89
2022/05/04 03:30:12;;;;;;;29.23;14.43;;;6.30;99.90;;;;;;5030840;28;20215;-88
2022/05/04 03:32:40;;;;;;;30.70;13.87;;;6.30;99.90;;;;;;5056562;28;20197;-89
2022/05/04 03:35:09;;;;;;;30.50;13.87;;;6.20;99.90;;;;;;5053010;28;20203;-89
2022/05/04 03:37:39;;;;;;;34.23;15.03;;;6.20;99.90;;;;;;5023366;28;20216;-89
2022/05/04 03:40:10;;;;;;;28.17;14.03;;;6.10;99.90;;;;;;5033553;28;20189;-90
2022/05/04 03:42:39;;;;;;;28.40;14.60;;;6.10;99.90;;;;;;5024562;28;20196;-90
2022/05/04 03:45:08;;;;;;;33.20;14.20;;;6.10;99.90;;;;;;5067471;28;20634;-89
2022/05/04 03:47:38;;;;;;;34.33;15.30;;;6.00;99.90;;;;;;5074906;28;20441;-89
2022/05/04 03:50:07;;;;;;;38.03;16.27;;;5.90;99.90;;;;;;5060565;28;20268;-89
2022/05/04 03:52:35;;;;;;;36.03;16.03;;;5.90;99.90;;;;;;5076613;28;20250;-89
2022/05/04 03:55:07;;;;;;;31.97;14.70;;;5.90;99.90;;;;;;5039189;28;20670;-88
2022/05/04 03:57:35;;;;;;;32.57;14.93;;;5.90;99.90;;;;;;5053259;28;20225;-89
2022/05/04 04:00:04;;;;;;;28.60;13.80;;;5.90;99.90;;;;;;5027247;28;20658;-89
2022/05/04 04:02:33;;;;;;;36.03;15.10;;;5.80;99.90;;;;;;5054557;28;20307;-88
2022/05/04 04:05:02;;;;;;;30.80;15.20;;;5.80;99.90;;;;;;5019672;28;20199;-89
2022/05/04 04:07:31;;;;;;;32.90;15.43;;;5.70;99.90;;;;;;5055721;28;20204;-90
2022/05/04 04:09:59;;;;;;;35.90;16.10;;;5.70;99.90;;;;;;5049637;28;20291;-90
2022/05/04 04:12:29;;;;;;;31.90;15.13;;;5.60;99.90;;;;;;5046431;28;20292;-89
2022/05/04 04:14:58;;;;;;;30.60;15.30;;;5.70;99.90;;;;;;5016750;28;20196;-88
2022/05/04 04:17:26;;;;;;;29.80;14.97;;;5.70;99.90;;;;;;5014625;28;20193;-90
2022/05/04 04:22:38;;;;;;;31.33;14.80;;;5.60;99.90;;;;;;5033556;28;20199;-88
2022/05/04 04:25:08;;;;;;;31.90;15.90;;;5.60;99.90;;;;;;5052198;28;20199;-89
2022/05/04 04:27:38;;;;;;;29.23;15.43;;;5.60;99.90;;;;;;5044733;28;20211;-89
2022/05/04 04:30:08;;;;;;;34.83;16.23;;;5.60;99.90;;;;;;5041760;28;20316;-89
2022/05/04 04:32:37;;;;;;;34.17;15.63;;;5.50;99.90;;;;;;5029712;28;20232;-89
2022/05/04 04:35:07;;;;;;;30.17;16.03;;;5.50;99.90;;;;;;5014328;28;20653;-89
2022/05/04 04:37:36;;;;;;;33.73;16.93;;;5.60;99.90;;;;;;5043680;28;20184;-88
2022/05/04 04:40:06;;;;;;;39.50;17.30;;;5.60;99.90;;;;;;5070088;28;20231;-89
2022/05/04 04:42:34;;;;;;;31.30;16.03;;;5.60;99.90;;;;;;5021332;28;20216;-89
2022/05/04 04:45:05;;;;;;;33.87;16.57;;;5.60;99.90;;;;;;5027765;28;20207;-89
2022/05/04 04:47:33;;;;;;;39.87;16.47;;;5.60;99.90;;;;;;5031879;28;20282;-90
2022/05/04 04:50:02;;;;;;;31.07;16.50;;;5.60;99.90;;;;;;5012210;28;20666;-89
2022/05/04 04:52:30;;;;;;;33.73;16.80;;;5.60;99.90;;;;;;5019303;28;20192;-89
2022/05/04 04:54:58;;;;;;;34.13;16.37;;;5.70;99.90;;;;;;5061506;28;20193;-88
2022/05/04 04:57:27;;;;;;;34.40;17.33;;;5.70;99.90;;;;;;5030945;28;20248;-89
2022/05/04 04:59:56;;;;;;;33.57;17.13;;;5.70;99.90;;;;;;5019802;28;20221;-90
2022/05/04 05:02:26;;;;;;;37.90;17.73;;;5.80;99.90;;;;;;5039021;28;20242;-90
2022/05/04 05:04:54;;;;;;;36.50;18.17;;;5.80;99.90;;;;;;5059694;28;20684;-89
2022/05/04 05:07:23;;;;;;;35.70;16.93;;;5.80;99.90;;;;;;5070588;28;20188;-90
2022/05/04 05:09:52;;;;;;;39.87;17.83;;;5.90;99.90;;;;;;5042613;28;20185;-89
2022/05/04 05:12:22;;;;;;;35.43;18.70;;;6.00;99.90;;;;;;5021780;28;20204;-89
2022/05/04 05:17:42;;;;;;;56.40;21.67;;;6.20;99.90;;;;;;5063904;28;20206;-91
2022/05/04 05:20:13;;;;;;;45.93;23.07;;;6.40;99.90;;;;;;5025604;28;20246;-90
2022/05/04 05:22:42;;;;;;;44.53;21.73;;;6.50;99.90;;;;;;5019325;28;20253;-92
2022/05/04 05:25:10;;;;;;;40.97;23.00;;;6.60;99.90;;;;;;5056154;28;20173;-90
2022/05/04 05:27:40;;;;;;;51.40;21.97;;;6.80;99.90;;;;;;5041179;28;20299;-92
2022/05/04 05:30:09;;;;;;;54.53;21.87;;;6.90;99.90;;;;;;5024306;28;20232;-91
2022/05/04 05:33:26;;;;;;;44.97;21.83;;;7.00;99.90;;;;;;5036477;28;20228;-93
2022/05/04 05:35:59;;;;;;;47.37;22.37;;;7.10;99.90;;;;;;4957434;28;20213;-91
2022/05/04 05:38:28;;;;;;;49.20;24.17;;;7.20;99.90;;;;;;5039832;28;20200;-92
2022/05/04 05:40:57;;;;;;;49.63;24.20;;;7.40;99.90;;;;;;5013871;28;20231;-90
2022/05/04 05:43:44;;;;;;;46.60;22.73;;;7.50;99.90;;;;;;5043583;28;20187;-91
2022/05/04 05:46:14;;;;;;;40.87;19.00;;;7.60;99.90;;;;;;5041795;28;20199;-92
2022/05/04 05:49:20;;;;;;;39.83;19.13;;;7.80;99.90;;;;;;5043941;28;20188;-90
2022/05/04 05:51:51;;;;;;;33.73;17.07;;;7.90;99.90;;;;;;5039627;28;20351;-90
2022/05/04 05:54:19;;;;;;;38.43;19.40;;;8.10;99.90;;;;;;5026397;28;20217;-91
2022/05/04 05:56:48;;;;;;;31.37;17.50;;;8.20;99.90;;;;;;5041327;28;20212;-91
2022/05/04 05:59:16;;;;;;;36.97;18.17;;;8.20;99.90;;;;;;5043651;28;20227;-91
2022/05/04 06:01:45;;;;;;;39.23;17.70;;;8.30;99.90;;;;;;5048046;28;20209;-91
2022/05/04 06:04:14;;;;;;;38.63;18.17;;;8.40;99.90;;;;;;5029747;28;20225;-92
2022/05/04 06:06:43;;;;;;;34.87;17.97;;;8.50;99.90;;;;;;5039900;28;20197;-90
2022/05/04 06:09:13;;;;;;;38.90;18.40;;;8.70;99.90;;;;;;5042108;28;20207;-92
2022/05/04 06:11:41;;;;;;;39.40;17.97;;;8.80;99.90;;;;;;5076543;28;20219;-90
2022/05/04 06:14:11;;;;;;;37.87;17.73;;;9.00;99.90;;;;;;5043343;28;20188;-90
2022/05/04 06:16:40;;;;;;;35.40;18.17;;;9.10;99.90;;;;;;5030014;28;20189;-91
2022/05/04 06:19:09;;;;;;;33.10;16.87;;;9.20;99.90;;;;;;5037366;28;20193;-92
2022/05/04 06:21:37;;;;;;;35.27;17.43;;;9.40;99.90;;;;;;5040009;28;20188;-91
2022/05/04 06:24:07;;;;;;;37.30;17.73;;;9.50;99.90;;;;;;5031762;28;20240;-90
2022/05/04 06:26:37;;;;;;;33.10;16.37;;;9.90;99.90;;;;;;5036529;28;20223;-92
2022/05/04 06:29:06;;;;;;;29.43;16.53;;;10.10;99.90;;;;;;5036381;28;20204;-92
2022/05/04 06:34:20;;;;;;;30.00;16.33;;;10.40;99.90;;;;;;5032968;28;20204;-92
2022/05/04 06:36:49;;;;;;;31.93;15.20;;;10.60;99.90;;;;;;5016655;28;20194;-91
2022/05/04 06:39:17;;;;;;;30.97;15.70;;;10.80;99.90;;;;;;5001117;28;20193;-91
2022/05/04 06:41:48;;;;;;;29.20;14.00;;;11.00;99.90;;;;;;5020732;28;20946;-91
2022/05/04 06:44:17;;;;;;;26.80;13.10;;;11.20;99.90;;;;;;5057518;28;20199;-92
2022/05/04 06:46:45;;;;;;;24.30;13.13;;;11.40;99.90;;;;;;5057627;28;20236;-90
2022/05/04 06:49:14;;;;;;;26.37;13.90;;;11.40;99.90;;;;;;5051260;28;20624;-90
2022/05/04 06:51:43;;;;;;;24.67;11.60;;;11.40;99.90;;;;;;5039871;28;20208;-90
2022/05/04 06:54:11;;;;;;;24.10;11.60;;;11.40;99.90;;;;;;5068975;28;20296;-91
2022/05/04 06:56:57;;;;;;;25.70;11.77;;;11.50;99.90;;;;;;5056030;28;20226;-91
2022/05/04 06:59:26;;;;;;;19.47;11.67;;;11.60;99.90;;;;;;5059076;28;20192;-92
2022/05/04 07:01:55;;;;;;;17.60;11.17;;;11.70;99.90;;;;;;5059044;28;20196;-90
2022/05/04 07:04:24;;;;;;;22.63;12.10;;;12.00;99.90;;;;;;5057584;28;20200;-90
2022/05/04 07:06:52;;;;;;;23.03;10.93;;;12.10;99.90;;;;;;5039184;28;20209;-91
2022/05/04 07:09:21;;;;;;;22.17;11.10;;;12.60;99.90;;;;;;5073537;28;20195;-91
2022/05/04 07:11:50;;;;;;;21.83;11.23;;;12.70;99.90;;;;;;5047167;28;20208;-91
2022/05/04 07:14:19;;;;;;;22.77;11.27;;;12.80;99.90;;;;;;5072350;28;20196;-93
2022/05/04 07:16:50;;;;;;;16.27;10.63;;;12.70;99.90;;;;;;5039131;28;20189;-91
2022/05/04 07:19:19;;;;;;;22.80;10.83;;;12.60;99.90;;;;;;5042663;28;20192;-91
2022/05/04 07:21:47;;;;;;;27.17;11.43;;;12.60;99.90;;;;;;5024894;28;20189;-91
2022/05/04 07:24:16;;;;;;;19.50;10.80;;;12.80;99.90;;;;;;5040286;28;20225;-91
2022/05/04 07:26:45;;;;;;;19.77;9.97;;;13.00;99.90;;;;;;5051396;28;20277;-93
2022/05/04 07:29:13;;;;;;;17.73;10.93;;;13.40;99.90;;;;;;5046406;28;20255;-91
2022/05/04 07:31:44;;;;;;;19.63;11.00;;;13.20;99.90;;;;;;5078340;28;20226;-91
2022/05/04 07:34:14;;;;;;;18.90;9.77;;;13.10;99.90;;;;;;5044468;28;20196;-91
2022/05/04 07:36:43;;;;;;;21.90;10.67;;;13.30;99.90;;;;;;5059736;28;20219;-92
2022/05/04 07:42:21;;;;;;;26.40;10.43;;;13.60;99.90;;;;;;5071468;28;20280;-92
2022/05/04 07:44:50;;;;;;;19.73;11.00;;;13.70;99.90;;;;;;5039787;28;20216;-90
2022/05/04 07:47:27;;;;;;;16.00;10.63;;;14.00;99.90;;;;;;5058627;28;20188;-91
2022/05/04 07:49:55;;;;;;;17.03;10.17;;;14.00;99.90;;;;;;5010262;28;20238;-92
2022/05/04 07:52:25;;;;;;;22.80;10.60;;;13.80;99.90;;;;;;5019103;28;20215;-91
2022/05/04 07:54:55;;;;;;;22.97;11.37;;;14.50;99.90;;;;;;5018488;28;20220;-92
2022/05/04 07:57:29;;;;;;;22.50;11.17;;;15.00;99.90;;;;;;5044388;28;20205;-91
2022/05/04 08:05:40;;;;;;;21.40;12.80;;;15.30;99.90;;;;;;5018656;28;20186;-92
2022/05/04 08:08:09;;;;;;;21.13;11.73;;;15.20;99.90;;;;;;5018279;28;20651;-93
2022/05/04 08:10:38;;;;;;;21.67;12.60;;;15.20;99.90;;;;;;5034940;28;20288;-92
2022/05/04 08:13:07;;;;;;;18.53;11.53;;;15.00;99.90;;;;;;5031545;28;20239;-91
2022/05/04 08:15:37;;;;;;;21.70;11.67;;;14.80;99.90;;;;;;5021476;28;20188;-93
2022/05/04 08:18:07;;;;;;;20.80;12.63;;;15.20;99.90;;;;;;5021632;28;20188;-92
2022/05/04 08:20:35;;;;;;;23.63;12.00;;;15.40;99.90;;;;;;5037782;28;20213;-93
2022/05/04 08:23:04;;;;;;;25.13;14.07;;;16.30;99.90;;;;;;5021377;28;20772;-93
2022/05/04 08:25:33;;;;;;;30.03;15.17;;;17.00;99.90;;;;;;5021398;28;20209;-93
2022/05/04 08:28:01;;;;;;;20.97;13.20;;;17.30;99.90;;;;;;5021576;28;20207;-94
2022/05/04 08:30:30;;;;;;;22.93;14.50;;;17.80;99.90;;;;;;5031684;28;20194;-94
2022/05/04 08:32:59;;;;;;;21.43;13.73;;;18.00;99.90;;;;;;5021382;28;20225;-91
2022/05/04 08:35:29;;;;;;;24.77;13.50;;;17.80;99.90;;;;;;5021471;28;20212;-92
2022/05/04 08:37:57;;;;;;;21.43;13.10;;;17.70;99.90;;;;;;5035160;28;20189;-92
2022/05/04 08:40:26;;;;;;;23.70;12.53;;;18.10;99.90;;;;;;5021468;28;20624;-93
2022/05/04 08:42:57;;;;;;;18.40;12.37;;;18.00;99.90;;;;;;5023225;28;20209;-94
2022/05/04 08:45:26;;;;;;;20.43;12.47;;;18.20;99.90;;;;;;5034727;28;20192;-93
2022/05/04 08:47:55;;;;;;;19.00;11.90;;;18.70;99.90;;;;;;5025244;28;20676;-92
2022/05/04 08:50:24;;;;;;;19.27;12.40;;;19.00;99.90;;;;;;5025268;28;20279;-94
2022/05/04 08:52:55;;;;;;;19.80;12.57;;;19.40;99.90;;;;;;5038052;28;20212;-93
2022/05/04 08:55:25;;;;;;;19.80;11.90;;;19.70;99.90;;;;;;5018171;28;20263;-94
2022/05/04 08:57:55;;;;;;;21.27;12.97;;;19.70;99.90;;;;;;5038283;28;20196;-92
2022/05/04 09:00:26;;;;;;;21.97;12.93;;;20.00;99.90;;;;;;5014466;28;20639;-93
2022/05/04 09:02:54;;;;;;;18.67;11.93;;;20.00;99.90;;;;;;5021434;28;20222;-93
2022/05/04 09:05:24;;;;;;;19.92;12.05;;;19.90;99.90;;;;;;5025225;28;20717;-92
2022/05/04 09:07:56;;;;;;;20.00;11.98;;;20.20;99.90;;;;;;5025234;28;20725;-92
2022/05/04 09:10:27;;;;;;;19.35;11.65;;;20.50;99.90;;;;;;5041707;28;20181;-94
2022/05/04 09:12:56;;;;;;;17.98;11.98;;;21.00;99.90;;;;;;5025594;28;20181;-93
2022/05/04 09:15:28;;;;;;;22.58;12.77;;;21.10;99.90;;;;;;5041215;28;20221;-93
2022/05/04 09:17:58;;;;;;;19.05;11.82;;;21.00;99.90;;;;;;5041177;28;20193;-93
2022/05/04 09:20:48;;;;;;;22.13;12.48;;;21.00;99.90;;;;;;5041255;28;20190;-93
2022/05/04 09:23:23;;;;;;;21.45;12.63;;;21.60;99.90;;;;;;5041358;28;20232;-92
2022/05/04 09:25:53;;;;;;;22.55;12.90;;;21.10;99.90;;;;;;5041144;28;20193;-93
2022/05/04 09:28:24;;;;;;;22.30;12.85;;;21.30;99.90;;;;;;5024634;28;20235;-93
2022/05/04 09:30:54;;;;;;;22.52;14.20;;;21.40;99.90;;;;;;5024634;28;20247;-92
2022/05/04 09:33:26;;;;;;;19.17;13.40;;;21.30;99.90;;;;;;5024420;28;20188;-92
2022/05/04 09:35:55;;;;;;;19.67;13.60;;;21.80;99.90;;;;;;5024343;28;20200;-92
2022/05/04 09:46:49;;;;;;;23.30;14.70;;;22.70;99.90;;;;;;5024750;28;20256;-93
2022/05/04 09:49:20;;;;;;;20.83;13.70;;;22.80;99.90;;;;;;5024752;28;20281;-92
2022/05/04 09:51:51;;;;;;;19.90;12.90;;;23.10;99.90;;;;;;5024630;28;20660;-92
2022/05/04 09:54:23;;;;;;;19.63;14.43;;;23.40;99.90;;;;;;5039979;28;20683;-93
2022/05/04 09:56:53;;;;;;;25.88;14.80;;;23.40;99.90;;;;;;5024505;28;20580;-92
2022/05/04 09:59:23;;;;;;;21.48;13.57;;;22.90;99.90;;;;;;5040732;28;20196;-96
2022/05/04 10:01:54;;;;;;;18.63;12.80;;;23.00;99.90;;;;;;5040268;28;20234;-94
2022/05/04 10:04:24;;;;;;;18.65;13.88;;;23.80;99.80;;;;;;5024525;28;20213;-93
2022/05/04 10:07:01;;;;;;;22.17;13.43;;;24.20;99.40;;;;;;5024007;28;20531;-95
2022/05/04 10:09:32;;;;;;;18.92;13.35;;;24.40;98.60;;;;;;5023878;28;20196;-93
2022/05/04 10:12:02;;;;;;;20.10;13.88;;;23.90;98.40;;;;;;5023993;28;20234;-92
2022/05/04 10:14:31;;;;;;;18.83;14.45;;;23.20;99.50;;;;;;5023767;28;20223;-95
2022/05/04 10:17:07;;;;;;;24.25;16.02;;;23.10;99.60;;;;;;5023541;28;20195;-93
2022/05/04 10:19:45;;;;;;;24.42;15.63;;;23.00;99.50;;;;;;5023722;28;20185;-93
2022/05/04 10:22:20;;;;;;;23.15;17.50;;;22.80;99.90;;;;;;5023555;28;20270;-93
2022/05/04 10:24:51;;;;;;;26.45;16.83;;;22.90;99.80;;;;;;5023222;28;20320;-94
2022/05/04 10:27:23;;;;;;;27.42;16.83;;;23.50;99.90;;;;;;5023548;28;20288;-93
2022/05/04 10:32:52;;;;;;;25.00;17.15;;;22.80;99.20;;;;;;5024083;28;20184;-93
2022/05/04 10:35:27;;;;;;;23.40;16.23;;;22.00;99.90;;;;;;5023586;28;20261;-92
2022/05/04 10:38:10;;;;;;;25.65;17.85;;;22.40;99.90;;;;;;5024349;28;20283;-93
2022/05/04 10:40:45;;;;;;;24.75;17.27;;;22.90;99.90;;;;;;5039506;28;20329;-91
2022/05/04 10:43:18;;;;;;;25.80;18.38;;;23.40;99.90;;;;;;5039489;28;20206;-92
2022/05/04 10:45:52;;;;;;;28.98;18.75;;;23.50;99.90;;;;;;5023650;28;20189;-92
2022/05/04 10:48:29;;;;;;;27.00;18.67;;;23.20;99.90;;;;;;5039740;28;20193;-94
2022/05/04 10:51:05;;;;;;;29.90;17.75;;;23.10;99.90;;;;;;5039932;28;20687;-94
2022/05/04 10:53:48;;;;;;;21.70;15.67;;;22.70;99.90;;;;;;5039097;28;20188;-93
2022/05/04 10:56:35;;;;;;;25.83;16.50;;;22.40;99.70;;;;;;5022983;28;20193;-93
2022/05/04 10:59:05;;;;;;;22.67;16.27;;;22.00;99.90;;;;;;5023062;28;20196;-93
2022/05/04 11:01:36;;;;;;;26.13;16.17;;;22.00;99.90;;;;;;5039241;28;20558;-92
2022/05/04 11:04:21;;;;;;;23.43;16.10;;;21.90;99.90;;;;;;5022840;28;20201;-92
2022/05/04 11:07:04;;;;;;;27.13;16.50;;;21.80;99.90;;;;;;5022422;28;20284;-93
2022/05/04 11:09:37;;;;;;;21.63;15.03;;;22.10;99.90;;;;;;5022993;28;20192;-93
2022/05/04 11:12:10;;;;;;;23.63;15.63;;;22.20;99.40;;;;;;5023309;28;20195;-94
2022/05/04 11:14:42;;;;;;;22.00;14.17;;;22.00;99.90;;;;;;5039560;28;20253;-95
2022/05/04 11:17:12;;;;;;;24.03;15.90;;;22.30;99.90;;;;;;5023436;28;20196;-92
2022/05/04 11:19:44;;;;;;;27.43;15.37;;;22.70;99.90;;;;;;5040656;28;20213;-93
2022/05/04 11:22:14;;;;;;;20.27;15.20;;;22.90;99.90;;;;;;5041743;28;20185;-94
2022/05/04 11:25:03;;;;;;;24.50;16.40;;;22.80;99.60;;;;;;5025657;28;20209;-93
2022/05/04 11:27:34;;;;;;;25.33;15.30;;;22.80;99.30;;;;;;5025061;28;20665;-95
2022/05/04 11:30:05;;;;;;;23.60;14.50;;;22.50;99.90;;;;;;5040181;28;20184;-94
2022/05/04 11:32:40;;;;;;;22.07;15.80;;;22.50;99.90;;;;;;5040485;28;20197;-93
2022/05/04 11:35:14;;;;;;;23.40;16.83;;;22.60;99.90;;;;;;5039142;28;20191;-94
2022/05/04 11:37:43;;;;;;;18.10;14.93;;;22.30;99.90;;;;;;5039067;28;20697;-93
2022/05/04 11:40:15;;;;;;;15.27;12.27;;;22.20;99.90;;;;;;5039011;28;20245;-92
2022/05/04 11:42:46;;;;;;;21.17;15.23;;;21.80;99.90;;;;;;5035462;28;20196;-92
2022/05/04 11:50:06;;;;;;;32.83;15.70;;;21.90;99.90;;;;;;5036508;28;20273;-92
2022/05/04 11:52:35;;;;;;;21.53;14.53;;;22.20;99.90;;;;;;5019158;28;20199;-93
2022/05/04 11:59:42;;;;;;;28.93;17.07;;;22.00;99.90;;;;;;5036487;28;20536;-93
2022/05/04 12:11:17;;;;;;;25.83;17.23;;;21.90;99.90;;;;;;5035087;28;20264;-93
2022/05/04 12:13:47;;;;;;;26.30;17.57;;;21.80;99.90;;;;;;5018401;28;20193;-92
2022/05/04 12:21:05;;;;;;;21.73;15.40;;;21.90;99.90;;;;;;5036958;28;20196;-92
2022/05/04 12:23:34;;;;;;;17.33;13.13;;;22.20;99.90;;;;;;5002831;28;20232;-93
2022/05/04 12:26:04;;;;;;;21.70;12.30;;;22.20;99.90;;;;;;5024681;28;20658;-93
2022/05/04 12:48:32;;;;;;;16.70;11.17;;;21.50;99.90;;;;;;5039665;28;20666;-91
2022/05/04 12:51:02;;;;;;;16.97;11.23;;;21.70;99.90;;;;;;5005455;28;20186;-92
2022/05/04 12:58:14;;;;;;;13.50;9.13;;;21.50;99.90;;;;;;5036261;28;20382;-91
2022/05/04 13:05:36;;;;;;;8.60;5.10;;;21.80;99.90;;;;;;5035636;28;20670;-92
2022/05/04 13:12:43;;;;;;;16.00;7.20;;;21.80;99.90;;;;;;5036134;28;20280;-94
2022/05/04 13:20:03;;;;;;;9.43;7.60;;;21.30;99.90;;;;;;5035642;28;20160;-92
2022/05/04 13:41:39;;;;;;;17.57;10.03;;;20.00;99.90;;;;;;5047157;28;20191;-92
2022/05/04 13:49:09;;;;;;;15.87;10.67;;;19.60;99.90;;;;;;5040818;28;20177;-91
2022/05/04 13:56:15;;;;;;;17.40;9.50;;;19.40;99.90;;;;;;5044345;28;20184;-91
2022/05/04 13:58:45;;;;;;;12.20;9.13;;;19.40;99.90;;;;;;5020647;28;20194;-92
2022/05/04 14:05:58;;;;;;;15.40;9.87;;;19.70;99.90;;;;;;5038010;28;20200;-91
2022/05/04 14:08:27;;;;;;;14.30;9.30;;;20.20;99.90;;;;;;5004463;28;20292;-92
2022/05/04 14:11:38;;;;;;;16.83;9.07;;;20.10;99.90;;;;;;5004507;28;20666;-92
2022/05/04 14:26:00;;;;;;;9.47;7.40;;;20.20;99.90;;;;;;5048179;28;20231;-92
2022/05/04 14:46:01;;;;;;;16.70;9.67;;;19.60;99.90;;;;;;5057274;28;20680;-92
2022/05/04 14:48:30;;;;;;;11.57;8.33;;;19.60;99.90;;;;;;5023691;28;20193;-92
2022/05/04 14:51:25;;;;;;;14.70;9.10;;;19.40;99.90;;;;;;5039180;28;20192;-92
2022/05/04 14:58:38;;;;;;;13.20;8.93;;;19.10;99.90;;;;;;5057194;28;20195;-92
2022/05/04 15:15:43;;;;;;;14.17;8.73;;;19.60;99.90;;;;;;5039236;28;20211;-91
2022/05/04 15:18:17;;;;;;;14.03;8.67;;;19.40;99.90;;;;;;5022894;28;20181;-93
2022/05/04 15:25:30;;;;;;;17.30;9.33;;;19.30;99.90;;;;;;5056672;28;20228;-92
2022/05/04 15:31:41;;;;;;;15.00;9.47;;;19.20;99.90;;;;;;5022634;28;20289;-92
2022/05/04 15:34:14;;;;;;;14.63;9.40;;;19.40;99.90;;;;;;5021871;28;20225;-91
2022/05/04 15:41:40;;;;;;;19.43;8.97;;;19.50;99.90;;;;;;5055212;28;20172;-94
2022/05/04 15:48:47;;;;;;;12.70;8.30;;;19.00;99.90;;;;;;5056147;28;20165;-91
2022/05/04 16:04:42;;;;;;;12.33;7.77;;;18.80;99.90;;;;;;5057050;28;20235;-92
2022/05/04 16:16:28;;;;;;;14.07;8.27;;;18.30;99.90;;;;;;5055989;28;20543;-91
2022/05/04 16:26:14;;;;;;;9.33;7.80;;;18.50;99.90;;;;;;5038625;28;20261;-92
2022/05/04 16:33:15;;;;;;;15.57;7.90;;;18.70;99.90;;;;;;5058177;28;20255;-93
2022/05/04 16:39:32;;;;;;;14.10;8.13;;;19.00;99.90;;;;;;5041344;28;20192;-93
2022/05/04 16:46:50;;;;;;;12.90;8.27;;;19.40;99.90;;;;;;5075389;28;20175;-92
2022/05/04 16:49:47;;;;;;;18.93;8.37;;;19.50;99.90;;;;;;5041150;28;20188;-91